sensor_id;sensor_type;location;lat;lon;timestamp;P1;durP1;ratioP1;P2;durP2;ratioP2
18501;SDS011;68437;52.236;5.710;2023-11-18T00:01:43;129.93;;;42.23;;
18501;SDS011;68437;52.236;5.710;2023-11-18T00:04:10;137.10;;;42.03;;
18501;SDS011;68437;52.236;5.710;2023-11-18T00:06:40;128.45;;;39.72;;
18501;SDS011;68437;52.236;5.710;2023-11-18T00:09:09;128.40;;;42.50;;
18501;SDS011;68437;52.236;5.710;2023-11-18T00:11:38;126.85;;;41.05;;
18501;SDS011;68437;52.236;5.710;2023-11-18T00:14:05;118.43;;;39.40;;
18501;SDS011;68437;52.236;5.710;2023-11-18T00:16:33;132.77;;;42.37;;
18501;SDS011;68437;52.236;5.710;2023-11-18T00:19:00;129.33;;;41.93;;
18501;SDS011;68437;52.236;5.710;2023-11-18T00:21:29;136.47;;;43.07;;
18501;SDS011;68437;52.236;5.710;2023-11-18T00:23:56;136.67;;;43.57;;
18501;SDS011;68437;52.236;5.710;2023-11-18T00:26:23;136.50;;;43.97;;
18501;SDS011;68437;52.236;5.710;2023-11-18T00:28:51;132.70;;;41.97;;
18501;SDS011;68437;52.236;5.710;2023-11-18T00:31:17;126.88;;;40.83;;
18501;SDS011;68437;52.236;5.710;2023-11-18T00:33:45;132.53;;;42.87;;
18501;SDS011;68437;52.236;5.710;2023-11-18T00:36:12;136.77;;;42.83;;
18501;SDS011;68437;52.236;5.710;2023-11-18T00:38:39;124.57;;;40.50;;
18501;SDS011;68437;52.236;5.710;2023-11-18T00:41:06;137.23;;;43.40;;
18501;SDS011;68437;52.236;5.710;2023-11-18T00:43:33;138.47;;;43.10;;
18501;SDS011;68437;52.236;5.710;2023-11-18T00:46:00;130.97;;;42.70;;
18501;SDS011;68437;52.236;5.710;2023-11-18T00:48:28;142.70;;;43.40;;
18501;SDS011;68437;52.236;5.710;2023-11-18T00:50:59;137.50;;;44.80;;
18501;SDS011;68437;52.236;5.710;2023-11-18T00:53:26;146.27;;;44.10;;
18501;SDS011;68437;52.236;5.710;2023-11-18T00:55:52;139.00;;;43.80;;
18501;SDS011;68437;52.236;5.710;2023-11-18T00:58:19;127.00;;;42.30;;
18501;SDS011;68437;52.236;5.710;2023-11-18T01:00:46;141.67;;;44.43;;
18501;SDS011;68437;52.236;5.710;2023-11-18T01:03:13;128.33;;;43.17;;
18501;SDS011;68437;52.236;5.710;2023-11-18T01:05:41;131.10;;;43.10;;
18501;SDS011;68437;52.236;5.710;2023-11-18T01:08:12;135.70;;;43.87;;
18501;SDS011;68437;52.236;5.710;2023-11-18T01:10:39;142.00;;;42.60;;
18501;SDS011;68437;52.236;5.710;2023-11-18T01:13:06;126.70;;;42.87;;
18501;SDS011;68437;52.236;5.710;2023-11-18T01:15:34;142.87;;;44.77;;
18501;SDS011;68437;52.236;5.710;2023-11-18T01:18:01;148.57;;;45.17;;
18501;SDS011;68437;52.236;5.710;2023-11-18T01:20:28;133.43;;;42.83;;
18501;SDS011;68437;52.236;5.710;2023-11-18T01:22:55;150.37;;;43.83;;
18501;SDS011;68437;52.236;5.710;2023-11-18T01:25:23;139.07;;;42.87;;
18501;SDS011;68437;52.236;5.710;2023-11-18T01:27:50;122.30;;;41.17;;
18501;SDS011;68437;52.236;5.710;2023-11-18T01:30:17;139.83;;;43.57;;
18501;SDS011;68437;52.236;5.710;2023-11-18T01:32:44;134.17;;;42.83;;
18501;SDS011;68437;52.236;5.710;2023-11-18T01:35:11;134.50;;;42.37;;
18501;SDS011;68437;52.236;5.710;2023-11-18T01:37:38;133.30;;;42.03;;
18501;SDS011;68437;52.236;5.710;2023-11-18T01:40:05;150.33;;;45.27;;
18501;SDS011;68437;52.236;5.710;2023-11-18T01:42:34;133.00;;;43.23;;
18501;SDS011;68437;52.236;5.710;2023-11-18T01:45:02;156.00;;;46.00;;
18501;SDS011;68437;52.236;5.710;2023-11-18T01:47:31;155.83;;;46.17;;
18501;SDS011;68437;52.236;5.710;2023-11-18T01:49:58;154.90;;;45.30;;
18501;SDS011;68437;52.236;5.710;2023-11-18T01:52:28;173.10;;;48.70;;
18501;SDS011;68437;52.236;5.710;2023-11-18T01:54:55;149.80;;;45.60;;
18501;SDS011;68437;52.236;5.710;2023-11-18T01:57:22;164.80;;;46.60;;
18501;SDS011;68437;52.236;5.710;2023-11-18T01:59:53;146.53;;;45.27;;
18501;SDS011;68437;52.236;5.710;2023-11-18T02:02:20;161.20;;;47.13;;
18501;SDS011;68437;52.236;5.710;2023-11-18T02:04:47;171.37;;;48.30;;
18501;SDS011;68437;52.236;5.710;2023-11-18T02:07:13;157.88;;;46.72;;
18501;SDS011;68437;52.236;5.710;2023-11-18T02:09:41;159.03;;;46.43;;
18501;SDS011;68437;52.236;5.710;2023-11-18T02:12:11;144.73;;;45.80;;
18501;SDS011;68437;52.236;5.710;2023-11-18T02:14:46;148.93;;;45.80;;
18501;SDS011;68437;52.236;5.710;2023-11-18T02:17:17;157.50;;;46.42;;
18501;SDS011;68437;52.236;5.710;2023-11-18T02:19:51;162.00;;;47.10;;
18501;SDS011;68437;52.236;5.710;2023-11-18T02:22:19;171.13;;;49.20;;
18501;SDS011;68437;52.236;5.710;2023-11-18T02:24:48;175.17;;;49.50;;
18501;SDS011;68437;52.236;5.710;2023-11-18T02:27:19;158.00;;;48.15;;
18501;SDS011;68437;52.236;5.710;2023-11-18T02:29:47;166.60;;;48.97;;
18501;SDS011;68437;52.236;5.710;2023-11-18T02:32:18;181.63;;;49.90;;
18501;SDS011;68437;52.236;5.710;2023-11-18T02:34:53;227.47;;;52.20;;
18501;SDS011;68437;52.236;5.710;2023-11-18T02:37:27;162.80;;;48.43;;
18501;SDS011;68437;52.236;5.710;2023-11-18T02:40:00;158.63;;;50.10;;
18501;SDS011;68437;52.236;5.710;2023-11-18T02:42:34;170.80;;;49.60;;
18501;SDS011;68437;52.236;5.710;2023-11-18T02:45:04;180.57;;;51.47;;
18501;SDS011;68437;52.236;5.710;2023-11-18T02:47:33;196.13;;;52.15;;
18501;SDS011;68437;52.236;5.710;2023-11-18T02:50:00;174.70;;;51.70;;
18501;SDS011;68437;52.236;5.710;2023-11-18T02:52:35;180.60;;;51.50;;
18501;SDS011;68437;52.236;5.710;2023-11-18T02:55:03;182.03;;;53.53;;
18501;SDS011;68437;52.236;5.710;2023-11-18T02:57:31;174.65;;;51.40;;
18501;SDS011;68437;52.236;5.710;2023-11-18T03:00:00;168.97;;;52.53;;
18501;SDS011;68437;52.236;5.710;2023-11-18T03:02:28;172.80;;;50.63;;
18501;SDS011;68437;52.236;5.710;2023-11-18T03:04:56;220.97;;;55.03;;
18501;SDS011;68437;52.236;5.710;2023-11-18T03:07:23;181.70;;;52.07;;
18501;SDS011;68437;52.236;5.710;2023-11-18T03:09:52;192.87;;;52.13;;
18501;SDS011;68437;52.236;5.710;2023-11-18T03:12:21;230.27;;;55.15;;
18501;SDS011;68437;52.236;5.710;2023-11-18T03:14:48;173.53;;;50.93;;
18501;SDS011;68437;52.236;5.710;2023-11-18T03:17:16;206.50;;;53.30;;
18501;SDS011;68437;52.236;5.710;2023-11-18T03:19:43;214.37;;;53.20;;
18501;SDS011;68437;52.236;5.710;2023-11-18T03:22:09;188.83;;;53.80;;
18501;SDS011;68437;52.236;5.710;2023-11-18T03:24:38;179.07;;;52.80;;
18501;SDS011;68437;52.236;5.710;2023-11-18T03:27:05;182.13;;;52.63;;
18501;SDS011;68437;52.236;5.710;2023-11-18T03:29:36;165.40;;;51.70;;
18501;SDS011;68437;52.236;5.710;2023-11-18T03:32:05;218.20;;;54.03;;
18501;SDS011;68437;52.236;5.710;2023-11-18T03:34:33;163.07;;;48.50;;
18501;SDS011;68437;52.236;5.710;2023-11-18T03:37:00;166.60;;;51.17;;
18501;SDS011;68437;52.236;5.710;2023-11-18T03:39:27;226.80;;;50.55;;
18501;SDS011;68437;52.236;5.710;2023-11-18T03:41:54;169.13;;;49.55;;
18501;SDS011;68437;52.236;5.710;2023-11-18T03:44:23;231.23;;;55.03;;
18501;SDS011;68437;52.236;5.710;2023-11-18T03:46:50;260.53;;;52.67;;
18501;SDS011;68437;52.236;5.710;2023-11-18T03:49:17;203.93;;;51.70;;
18501;SDS011;68437;52.236;5.710;2023-11-18T03:51:46;210.77;;;50.90;;
18501;SDS011;68437;52.236;5.710;2023-11-18T03:54:13;188.18;;;50.80;;
18501;SDS011;68437;52.236;5.710;2023-11-18T03:56:40;236.80;;;54.00;;
18501;SDS011;68437;52.236;5.710;2023-11-18T03:59:07;212.52;;;52.92;;
18501;SDS011;68437;52.236;5.710;2023-11-18T04:01:37;193.90;;;52.37;;
18501;SDS011;68437;52.236;5.710;2023-11-18T04:04:05;196.63;;;53.30;;
18501;SDS011;68437;52.236;5.710;2023-11-18T04:06:32;183.35;;;50.53;;
18501;SDS011;68437;52.236;5.710;2023-11-18T04:09:01;188.60;;;52.63;;
18501;SDS011;68437;52.236;5.710;2023-11-18T04:11:29;195.88;;;52.63;;
18501;SDS011;68437;52.236;5.710;2023-11-18T04:13:56;177.63;;;50.53;;
18501;SDS011;68437;52.236;5.710;2023-11-18T04:16:22;194.77;;;51.85;;
18501;SDS011;68437;52.236;5.710;2023-11-18T04:18:49;185.93;;;50.90;;
18501;SDS011;68437;52.236;5.710;2023-11-18T04:21:16;182.63;;;49.65;;
18501;SDS011;68437;52.236;5.710;2023-11-18T04:23:44;193.53;;;52.00;;
18501;SDS011;68437;52.236;5.710;2023-11-18T04:26:13;186.93;;;51.67;;
18501;SDS011;68437;52.236;5.710;2023-11-18T04:28:40;201.73;;;52.87;;
18501;SDS011;68437;52.236;5.710;2023-11-18T04:31:06;184.93;;;48.60;;
18501;SDS011;68437;52.236;5.710;2023-11-18T04:33:33;189.87;;;51.70;;
18501;SDS011;68437;52.236;5.710;2023-11-18T04:36:00;173.03;;;49.73;;
18501;SDS011;68437;52.236;5.710;2023-11-18T04:38:27;182.47;;;50.77;;
18501;SDS011;68437;52.236;5.710;2023-11-18T04:40:57;166.13;;;47.40;;
18501;SDS011;68437;52.236;5.710;2023-11-18T04:43:25;196.37;;;51.00;;
18501;SDS011;68437;52.236;5.710;2023-11-18T04:45:52;191.47;;;50.23;;
18501;SDS011;68437;52.236;5.710;2023-11-18T04:48:19;177.70;;;48.17;;
18501;SDS011;68437;52.236;5.710;2023-11-18T04:50:46;171.70;;;47.57;;
18501;SDS011;68437;52.236;5.710;2023-11-18T04:53:13;159.47;;;47.10;;
18501;SDS011;68437;52.236;5.710;2023-11-18T04:55:40;185.80;;;49.97;;
18501;SDS011;68437;52.236;5.710;2023-11-18T04:58:07;186.40;;;49.70;;
18501;SDS011;68437;52.236;5.710;2023-11-18T05:00:37;181.15;;;50.33;;
18501;SDS011;68437;52.236;5.710;2023-11-18T05:03:04;177.18;;;47.22;;
18501;SDS011;68437;52.236;5.710;2023-11-18T05:05:34;188.55;;;48.10;;
18501;SDS011;68437;52.236;5.710;2023-11-18T05:08:02;176.43;;;48.80;;
18501;SDS011;68437;52.236;5.710;2023-11-18T05:10:31;184.30;;;50.23;;
18501;SDS011;68437;52.236;5.710;2023-11-18T05:12:58;168.27;;;47.07;;
18501;SDS011;68437;52.236;5.710;2023-11-18T05:15:25;185.50;;;48.77;;
18501;SDS011;68437;52.236;5.710;2023-11-18T05:17:53;197.17;;;51.70;;
18501;SDS011;68437;52.236;5.710;2023-11-18T05:20:20;193.57;;;50.07;;
18501;SDS011;68437;52.236;5.710;2023-11-18T05:22:48;187.45;;;48.40;;
18501;SDS011;68437;52.236;5.710;2023-11-18T05:25:14;175.27;;;48.73;;
18501;SDS011;68437;52.236;5.710;2023-11-18T05:27:41;186.33;;;47.87;;
18501;SDS011;68437;52.236;5.710;2023-11-18T05:30:09;192.37;;;50.13;;
18501;SDS011;68437;52.236;5.710;2023-11-18T05:32:37;187.82;;;49.60;;
18501;SDS011;68437;52.236;5.710;2023-11-18T05:35:09;200.18;;;50.92;;
18501;SDS011;68437;52.236;5.710;2023-11-18T05:37:39;186.25;;;49.15;;
18501;SDS011;68437;52.236;5.710;2023-11-18T05:40:06;195.55;;;49.25;;
18501;SDS011;68437;52.236;5.710;2023-11-18T05:42:36;184.52;;;48.65;;
18501;SDS011;68437;52.236;5.710;2023-11-18T05:45:06;206.40;;;50.03;;
18501;SDS011;68437;52.236;5.710;2023-11-18T05:47:42;193.07;;;49.83;;
18501;SDS011;68437;52.236;5.710;2023-11-18T05:50:12;191.63;;;48.57;;
18501;SDS011;68437;52.236;5.710;2023-11-18T05:52:40;186.50;;;47.93;;
18501;SDS011;68437;52.236;5.710;2023-11-18T05:55:07;203.55;;;51.10;;
18501;SDS011;68437;52.236;5.710;2023-11-18T05:57:36;185.43;;;48.27;;
18501;SDS011;68437;52.236;5.710;2023-11-18T06:00:03;202.43;;;47.97;;
18501;SDS011;68437;52.236;5.710;2023-11-18T06:02:34;171.97;;;47.63;;
18501;SDS011;68437;52.236;5.710;2023-11-18T06:05:01;191.07;;;48.23;;
18501;SDS011;68437;52.236;5.710;2023-11-18T06:07:31;178.35;;;46.15;;
18501;SDS011;68437;52.236;5.710;2023-11-18T06:09:59;184.40;;;48.07;;
18501;SDS011;68437;52.236;5.710;2023-11-18T06:12:26;189.17;;;48.60;;
18501;SDS011;68437;52.236;5.710;2023-11-18T06:14:53;176.27;;;47.57;;
18501;SDS011;68437;52.236;5.710;2023-11-18T06:17:20;184.57;;;48.23;;
18501;SDS011;68437;52.236;5.710;2023-11-18T06:19:48;182.13;;;48.53;;
18501;SDS011;68437;52.236;5.710;2023-11-18T06:22:15;197.90;;;48.38;;
18501;SDS011;68437;52.236;5.710;2023-11-18T06:24:43;178.97;;;48.97;;
18501;SDS011;68437;52.236;5.710;2023-11-18T06:27:10;174.88;;;48.03;;
18501;SDS011;68437;52.236;5.710;2023-11-18T06:29:37;162.00;;;45.30;;
18501;SDS011;68437;52.236;5.710;2023-11-18T06:32:05;194.20;;;48.42;;
18501;SDS011;68437;52.236;5.710;2023-11-18T06:34:35;162.60;;;47.23;;
18501;SDS011;68437;52.236;5.710;2023-11-18T06:37:04;173.83;;;48.10;;
18501;SDS011;68437;52.236;5.710;2023-11-18T06:39:34;165.30;;;47.70;;
18501;SDS011;68437;52.236;5.710;2023-11-18T06:42:06;153.93;;;46.13;;
18501;SDS011;68437;52.236;5.710;2023-11-18T06:44:36;167.13;;;47.63;;
18501;SDS011;68437;52.236;5.710;2023-11-18T06:47:03;166.80;;;45.63;;
18501;SDS011;68437;52.236;5.710;2023-11-18T06:49:31;168.17;;;46.67;;
18501;SDS011;68437;52.236;5.710;2023-11-18T06:51:59;156.85;;;46.03;;
18501;SDS011;68437;52.236;5.710;2023-11-18T06:54:28;154.38;;;45.28;;
18501;SDS011;68437;52.236;5.710;2023-11-18T06:56:55;168.07;;;47.47;;
18501;SDS011;68437;52.236;5.710;2023-11-18T06:59:23;154.60;;;46.30;;
18501;SDS011;68437;52.236;5.710;2023-11-18T07:01:50;146.93;;;45.23;;
18501;SDS011;68437;52.236;5.710;2023-11-18T07:04:17;153.07;;;45.83;;
18501;SDS011;68437;52.236;5.710;2023-11-18T07:06:44;155.90;;;45.80;;
18501;SDS011;68437;52.236;5.710;2023-11-18T07:09:13;159.43;;;46.83;;
18501;SDS011;68437;52.236;5.710;2023-11-18T07:11:42;156.13;;;48.67;;
18501;SDS011;68437;52.236;5.710;2023-11-18T07:14:11;136.20;;;43.90;;
18501;SDS011;68437;52.236;5.710;2023-11-18T07:16:41;143.40;;;45.03;;
18501;SDS011;68437;52.236;5.710;2023-11-18T07:19:08;148.15;;;47.25;;
18501;SDS011;68437;52.236;5.710;2023-11-18T07:21:40;155.13;;;46.07;;
18501;SDS011;68437;52.236;5.710;2023-11-18T07:24:07;142.80;;;45.10;;
18501;SDS011;68437;52.236;5.710;2023-11-18T07:26:35;130.83;;;44.17;;
18501;SDS011;68437;52.236;5.710;2023-11-18T07:29:01;140.50;;;44.67;;
18501;SDS011;68437;52.236;5.710;2023-11-18T07:31:28;134.07;;;45.97;;
18501;SDS011;68437;52.236;5.710;2023-11-18T07:33:56;145.77;;;45.83;;
18501;SDS011;68437;52.236;5.710;2023-11-18T07:36:23;137.38;;;44.72;;
18501;SDS011;68437;52.236;5.710;2023-11-18T07:38:50;136.43;;;43.67;;
18501;SDS011;68437;52.236;5.710;2023-11-18T07:41:17;134.03;;;45.30;;
18501;SDS011;68437;52.236;5.710;2023-11-18T07:43:49;143.20;;;44.80;;
18501;SDS011;68437;52.236;5.710;2023-11-18T07:46:17;142.67;;;45.43;;
18501;SDS011;68437;52.236;5.710;2023-11-18T07:48:47;115.43;;;41.83;;
18501;SDS011;68437;52.236;5.710;2023-11-18T07:51:15;128.85;;;44.40;;
18501;SDS011;68437;52.236;5.710;2023-11-18T07:53:42;134.70;;;43.72;;
18501;SDS011;68437;52.236;5.710;2023-11-18T07:56:09;126.93;;;43.08;;
18501;SDS011;68437;52.236;5.710;2023-11-18T07:58:37;122.97;;;44.20;;
18501;SDS011;68437;52.236;5.710;2023-11-18T08:01:04;131.53;;;43.73;;
18501;SDS011;68437;52.236;5.710;2023-11-18T08:03:32;130.00;;;44.23;;
18501;SDS011;68437;52.236;5.710;2023-11-18T08:05:59;121.97;;;43.07;;
18501;SDS011;68437;52.236;5.710;2023-11-18T08:08:28;137.95;;;43.10;;
18501;SDS011;68437;52.236;5.710;2023-11-18T08:10:55;130.73;;;42.90;;
18501;SDS011;68437;52.236;5.710;2023-11-18T08:13:23;120.82;;;41.38;;
18501;SDS011;68437;52.236;5.710;2023-11-18T08:15:50;128.83;;;42.77;;
18501;SDS011;68437;52.236;5.710;2023-11-18T08:18:17;122.60;;;40.72;;
18501;SDS011;68437;52.236;5.710;2023-11-18T08:20:46;124.95;;;41.80;;
18501;SDS011;68437;52.236;5.710;2023-11-18T08:23:13;114.53;;;39.57;;
18501;SDS011;68437;52.236;5.710;2023-11-18T08:25:41;109.93;;;39.97;;
18501;SDS011;68437;52.236;5.710;2023-11-18T08:28:09;109.40;;;38.83;;
18501;SDS011;68437;52.236;5.710;2023-11-18T08:30:37;110.97;;;40.10;;
18501;SDS011;68437;52.236;5.710;2023-11-18T08:33:04;103.35;;;37.28;;
18501;SDS011;68437;52.236;5.710;2023-11-18T08:35:33;116.83;;;39.03;;
18501;SDS011;68437;52.236;5.710;2023-11-18T08:38:00;98.68;;;36.80;;
18501;SDS011;68437;52.236;5.710;2023-11-18T08:40:29;103.87;;;36.97;;
18501;SDS011;68437;52.236;5.710;2023-11-18T08:42:57;98.40;;;36.35;;
18501;SDS011;68437;52.236;5.710;2023-11-18T08:45:24;95.13;;;35.10;;
18501;SDS011;68437;52.236;5.710;2023-11-18T08:47:54;94.82;;;34.60;;
18501;SDS011;68437;52.236;5.710;2023-11-18T08:50:21;85.43;;;32.83;;
18501;SDS011;68437;52.236;5.710;2023-11-18T08:52:50;80.00;;;32.72;;
18501;SDS011;68437;52.236;5.710;2023-11-18T08:55:22;95.25;;;33.47;;
18501;SDS011;68437;52.236;5.710;2023-11-18T08:58:05;87.68;;;33.53;;
18501;SDS011;68437;52.236;5.710;2023-11-18T09:00:41;83.13;;;32.77;;
18501;SDS011;68437;52.236;5.710;2023-11-18T09:03:11;83.25;;;32.60;;
18501;SDS011;68437;52.236;5.710;2023-11-18T09:05:43;73.82;;;30.25;;
18501;SDS011;68437;52.236;5.710;2023-11-18T09:08:21;76.23;;;30.07;;
18501;SDS011;68437;52.236;5.710;2023-11-18T09:10:49;73.38;;;29.17;;
18501;SDS011;68437;52.236;5.710;2023-11-18T09:13:20;80.03;;;29.63;;
18501;SDS011;68437;52.236;5.710;2023-11-18T09:15:47;73.25;;;28.02;;
18501;SDS011;68437;52.236;5.710;2023-11-18T09:18:14;67.80;;;28.47;;
18501;SDS011;68437;52.236;5.710;2023-11-18T09:20:45;63.75;;;25.90;;
18501;SDS011;68437;52.236;5.710;2023-11-18T09:23:12;60.23;;;25.17;;
18501;SDS011;68437;52.236;5.710;2023-11-18T09:25:40;66.93;;;26.37;;
18501;SDS011;68437;52.236;5.710;2023-11-18T09:28:07;59.53;;;25.10;;
18501;SDS011;68437;52.236;5.710;2023-11-18T09:30:40;62.17;;;25.00;;
18501;SDS011;68437;52.236;5.710;2023-11-18T09:33:15;65.22;;;25.17;;
18501;SDS011;68437;52.236;5.710;2023-11-18T09:35:51;58.70;;;23.97;;
18501;SDS011;68437;52.236;5.710;2023-11-18T09:38:21;56.45;;;23.35;;
18501;SDS011;68437;52.236;5.710;2023-11-18T09:40:49;60.20;;;23.17;;
18501;SDS011;68437;52.236;5.710;2023-11-18T09:43:18;49.83;;;22.05;;
18501;SDS011;68437;52.236;5.710;2023-11-18T09:45:48;47.13;;;21.63;;
18501;SDS011;68437;52.236;5.710;2023-11-18T09:48:20;56.15;;;22.00;;
18501;SDS011;68437;52.236;5.710;2023-11-18T09:50:50;50.22;;;20.77;;
18501;SDS011;68437;52.236;5.710;2023-11-18T09:53:18;41.80;;;18.70;;
18501;SDS011;68437;52.236;5.710;2023-11-18T09:55:45;49.67;;;19.30;;
18501;SDS011;68437;52.236;5.710;2023-11-18T09:58:20;48.47;;;19.13;;
18501;SDS011;68437;52.236;5.710;2023-11-18T10:00:50;40.67;;;17.90;;
18501;SDS011;68437;52.236;5.710;2023-11-18T10:03:24;40.88;;;18.05;;
18501;SDS011;68437;52.236;5.710;2023-11-18T10:05:51;44.80;;;17.70;;
18501;SDS011;68437;52.236;5.710;2023-11-18T10:08:20;44.42;;;17.58;;
18501;SDS011;68437;52.236;5.710;2023-11-18T10:10:51;43.40;;;19.03;;
18501;SDS011;68437;52.236;5.710;2023-11-18T10:13:30;46.08;;;18.40;;
18501;SDS011;68437;52.236;5.710;2023-11-18T10:16:01;43.78;;;17.38;;
18501;SDS011;68437;52.236;5.710;2023-11-18T10:18:30;41.63;;;18.05;;
18501;SDS011;68437;52.236;5.710;2023-11-18T10:21:00;42.33;;;17.45;;
18501;SDS011;68437;52.236;5.710;2023-11-18T10:23:29;40.40;;;15.93;;
18501;SDS011;68437;52.236;5.710;2023-11-18T10:25:59;44.22;;;17.88;;
18501;SDS011;68437;52.236;5.710;2023-11-18T10:28:28;38.25;;;16.67;;
18501;SDS011;68437;52.236;5.710;2023-11-18T10:30:58;39.45;;;16.35;;
18501;SDS011;68437;52.236;5.710;2023-11-18T10:33:29;41.70;;;16.98;;
18501;SDS011;68437;52.236;5.710;2023-11-18T10:35:57;47.58;;;18.45;;
18501;SDS011;68437;52.236;5.710;2023-11-18T10:38:28;49.65;;;18.20;;
18501;SDS011;68437;52.236;5.710;2023-11-18T10:40:56;47.77;;;18.30;;
18501;SDS011;68437;52.236;5.710;2023-11-18T10:43:24;48.53;;;18.30;;
18501;SDS011;68437;52.236;5.710;2023-11-18T10:45:54;52.13;;;17.75;;
18501;SDS011;68437;52.236;5.710;2023-11-18T10:48:37;58.05;;;18.75;;
18501;SDS011;68437;52.236;5.710;2023-11-18T10:51:08;52.70;;;18.70;;
18501;SDS011;68437;52.236;5.710;2023-11-18T10:53:37;49.77;;;19.30;;
18501;SDS011;68437;52.236;5.710;2023-11-18T10:56:04;52.97;;;18.52;;
18501;SDS011;68437;52.236;5.710;2023-11-18T10:58:35;49.33;;;19.17;;
18501;SDS011;68437;52.236;5.710;2023-11-18T11:01:06;55.63;;;19.65;;
18501;SDS011;68437;52.236;5.710;2023-11-18T11:03:41;57.92;;;23.27;;
18501;SDS011;68437;52.236;5.710;2023-11-18T11:06:20;60.70;;;20.02;;
18501;SDS011;68437;52.236;5.710;2023-11-18T11:08:48;57.63;;;22.80;;
18501;SDS011;68437;52.236;5.710;2023-11-18T11:11:15;63.57;;;27.53;;
18501;SDS011;68437;52.236;5.710;2023-11-18T11:13:47;65.53;;;24.13;;
18501;SDS011;68437;52.236;5.710;2023-11-18T11:16:16;65.13;;;25.45;;
18501;SDS011;68437;52.236;5.710;2023-11-18T11:18:48;57.37;;;22.67;;
18501;SDS011;68437;52.236;5.710;2023-11-18T11:21:22;68.80;;;23.48;;
18501;SDS011;68437;52.236;5.710;2023-11-18T11:23:53;54.85;;;21.50;;
18501;SDS011;68437;52.236;5.710;2023-11-18T11:26:30;65.27;;;25.13;;
18501;SDS011;68437;52.236;5.710;2023-11-18T11:29:07;55.75;;;21.55;;
18501;SDS011;68437;52.236;5.710;2023-11-18T11:31:53;68.75;;;24.85;;
18501;SDS011;68437;52.236;5.710;2023-11-18T11:34:29;60.27;;;22.67;;
18501;SDS011;68437;52.236;5.710;2023-11-18T11:36:59;57.33;;;22.45;;
18501;SDS011;68437;52.236;5.710;2023-11-18T11:39:26;59.90;;;21.90;;
18501;SDS011;68437;52.236;5.710;2023-11-18T11:41:55;49.37;;;19.93;;
18501;SDS011;68437;52.236;5.710;2023-11-18T11:44:24;53.08;;;20.48;;
18501;SDS011;68437;52.236;5.710;2023-11-18T11:46:57;64.07;;;23.93;;
18501;SDS011;68437;52.236;5.710;2023-11-18T11:49:25;62.63;;;27.00;;
18501;SDS011;68437;52.236;5.710;2023-11-18T11:52:02;68.88;;;28.75;;
18501;SDS011;68437;52.236;5.710;2023-11-18T11:54:42;57.65;;;22.90;;
18501;SDS011;68437;52.236;5.710;2023-11-18T11:57:15;57.40;;;26.63;;
18501;SDS011;68437;52.236;5.710;2023-11-18T11:59:53;57.20;;;24.83;;
18501;SDS011;68437;52.236;5.710;2023-11-18T12:02:21;52.75;;;22.88;;
18501;SDS011;68437;52.236;5.710;2023-11-18T12:04:51;53.55;;;21.95;;
18501;SDS011;68437;52.236;5.710;2023-11-18T12:07:24;52.10;;;20.25;;
18501;SDS011;68437;52.236;5.710;2023-11-18T12:09:55;47.35;;;20.02;;
18501;SDS011;68437;52.236;5.710;2023-11-18T12:12:22;58.08;;;20.58;;
18501;SDS011;68437;52.236;5.710;2023-11-18T12:14:51;48.67;;;18.75;;
18501;SDS011;68437;52.236;5.710;2023-11-18T12:17:22;43.97;;;18.87;;
18501;SDS011;68437;52.236;5.710;2023-11-18T12:19:53;48.97;;;18.55;;
18501;SDS011;68437;52.236;5.710;2023-11-18T12:22:25;45.93;;;18.03;;
18501;SDS011;68437;52.236;5.710;2023-11-18T12:27:57;40.50;;;17.25;;
18501;SDS011;68437;52.236;5.710;2023-11-18T12:30:40;47.33;;;16.73;;
18501;SDS011;68437;52.236;5.710;2023-11-18T12:33:17;44.60;;;17.25;;
18501;SDS011;68437;52.236;5.710;2023-11-18T12:42:08;42.47;;;16.57;;
18501;SDS011;68437;52.236;5.710;2023-11-18T12:44:45;38.40;;;17.15;;
18501;SDS011;68437;52.236;5.710;2023-11-18T12:47:56;44.20;;;17.50;;
18501;SDS011;68437;52.236;5.710;2023-11-18T12:50:36;39.20;;;16.48;;
18501;SDS011;68437;52.236;5.710;2023-11-18T12:53:04;37.27;;;16.40;;
18501;SDS011;68437;52.236;5.710;2023-11-18T12:55:33;40.00;;;15.77;;
18501;SDS011;68437;52.236;5.710;2023-11-18T12:58:00;33.38;;;13.73;;
18501;SDS011;68437;52.236;5.710;2023-11-18T13:00:30;35.63;;;14.40;;
18501;SDS011;68437;52.236;5.710;2023-11-18T13:02:59;35.58;;;14.07;;
18501;SDS011;68437;52.236;5.710;2023-11-18T13:05:26;34.72;;;14.70;;
18501;SDS011;68437;52.236;5.710;2023-11-18T13:07:55;39.03;;;15.57;;
18501;SDS011;68437;52.236;5.710;2023-11-18T13:10:22;38.20;;;14.93;;
18501;SDS011;68437;52.236;5.710;2023-11-18T13:12:53;33.00;;;15.18;;
18501;SDS011;68437;52.236;5.710;2023-11-18T13:15:20;32.13;;;14.20;;
18501;SDS011;68437;52.236;5.710;2023-11-18T13:17:59;32.05;;;14.25;;
18501;SDS011;68437;52.236;5.710;2023-11-18T13:20:31;29.23;;;13.07;;
18501;SDS011;68437;52.236;5.710;2023-11-18T13:23:00;34.53;;;13.63;;
18501;SDS011;68437;52.236;5.710;2023-11-18T13:25:33;27.02;;;13.13;;
18501;SDS011;68437;52.236;5.710;2023-11-18T13:28:02;22.95;;;12.50;;
18501;SDS011;68437;52.236;5.710;2023-11-18T13:30:30;25.40;;;11.73;;
18501;SDS011;68437;52.236;5.710;2023-11-18T13:32:57;29.33;;;12.65;;
18501;SDS011;68437;52.236;5.710;2023-11-18T13:35:24;25.70;;;10.88;;
18501;SDS011;68437;52.236;5.710;2023-11-18T13:37:51;31.33;;;14.02;;
18501;SDS011;68437;52.236;5.710;2023-11-18T13:40:19;23.52;;;11.43;;
18501;SDS011;68437;52.236;5.710;2023-11-18T13:42:48;27.52;;;11.35;;
18501;SDS011;68437;52.236;5.710;2023-11-18T13:45:28;22.52;;;9.20;;
18501;SDS011;68437;52.236;5.710;2023-11-18T13:47:55;21.73;;;10.98;;
18501;SDS011;68437;52.236;5.710;2023-11-18T13:50:22;22.55;;;11.50;;
18501;SDS011;68437;52.236;5.710;2023-11-18T13:52:50;26.33;;;11.95;;
18501;SDS011;68437;52.236;5.710;2023-11-18T13:55:18;18.83;;;10.63;;
18501;SDS011;68437;52.236;5.710;2023-11-18T13:57:51;23.48;;;10.25;;
18501;SDS011;68437;52.236;5.710;2023-11-18T14:00:21;18.27;;;9.65;;
18501;SDS011;68437;52.236;5.710;2023-11-18T14:02:50;22.30;;;9.30;;
18501;SDS011;68437;52.236;5.710;2023-11-18T14:05:17;16.38;;;9.13;;
18501;SDS011;68437;52.236;5.710;2023-11-18T14:07:47;16.05;;;9.13;;
18501;SDS011;68437;52.236;5.710;2023-11-18T14:10:14;16.20;;;9.20;;
18501;SDS011;68437;52.236;5.710;2023-11-18T14:12:57;18.75;;;11.05;;
18501;SDS011;68437;52.236;5.710;2023-11-18T14:15:30;17.55;;;8.90;;
18501;SDS011;68437;52.236;5.710;2023-11-18T14:18:01;16.33;;;8.10;;
18501;SDS011;68437;52.236;5.710;2023-11-18T14:20:28;18.05;;;9.20;;
18501;SDS011;68437;52.236;5.710;2023-11-18T14:22:56;16.95;;;8.10;;
18501;SDS011;68437;52.236;5.710;2023-11-18T14:25:24;16.63;;;8.18;;
18501;SDS011;68437;52.236;5.710;2023-11-18T14:27:52;15.93;;;7.38;;
18501;SDS011;68437;52.236;5.710;2023-11-18T14:30:19;14.00;;;8.25;;
18501;SDS011;68437;52.236;5.710;2023-11-18T14:32:45;16.10;;;7.43;;
18501;SDS011;68437;52.236;5.710;2023-11-18T14:35:14;15.27;;;7.18;;